sensor_id;sensor_type;location;lat;lon;timestamp;pressure;altitude;pressure_sealevel;temperature;humidity
49216;BME280;45943;53.148;8.204;2024-03-25T00:01:21;100391.47;;;10.46;100.00
49216;BME280;45943;53.148;8.204;2024-03-25T00:03:47;100398.81;;;10.44;100.00
49216;BME280;45943;53.148;8.204;2024-03-25T00:06:13;100397.69;;;10.46;100.00
49216;BME280;45943;53.148;8.204;2024-03-25T00:08:39;100395.13;;;10.45;100.00
49216;BME280;45943;53.148;8.204;2024-03-25T00:11:05;100398.66;;;10.45;100.00
49216;BME280;45943;53.148;8.204;2024-03-25T00:13:31;100403.19;;;10.45;100.00
49216;BME280;45943;53.148;8.204;2024-03-25T00:15:57;100400.63;;;10.43;100.00
49216;BME280;45943;53.148;8.204;2024-03-25T00:18:23;100406.38;;;10.39;100.00
49216;BME280;45943;53.148;8.204;2024-03-25T00:20:49;100405.81;;;10.35;100.00
49216;BME280;45943;53.148;8.204;2024-03-25T00:23:15;100402.66;;;10.30;100.00
49216;BME280;45943;53.148;8.204;2024-03-25T00:25:41;100406.75;;;10.24;100.00
49216;BME280;45943;53.148;8.204;2024-03-25T00:28:07;100411.34;;;10.22;100.00
49216;BME280;45943;53.148;8.204;2024-03-25T00:30:33;100402.72;;;10.19;100.00
49216;BME280;45943;53.148;8.204;2024-03-25T00:32:59;100409.91;;;10.18;100.00
49216;BME280;45943;53.148;8.204;2024-03-25T00:35:25;100406.88;;;10.12;100.00
49216;BME280;45943;53.148;8.204;2024-03-25T00:37:51;100401.94;;;10.07;100.00
49216;BME280;45943;53.148;8.204;2024-03-25T00:40:17;100415.59;;;10.04;100.00
49216;BME280;45943;53.148;8.204;2024-03-25T00:42:43;100410.97;;;10.06;100.00
49216;BME280;45943;53.148;8.204;2024-03-25T00:45:09;100410.09;;;10.05;100.00
49216;BME280;45943;53.148;8.204;2024-03-25T00:47:35;100403.91;;;10.05;100.00
49216;BME280;45943;53.148;8.204;2024-03-25T00:50:01;100402.72;;;9.98;100.00
49216;BME280;45943;53.148;8.204;2024-03-25T00:52:27;100405.53;;;9.96;100.00
49216;BME280;45943;53.148;8.204;2024-03-25T00:54:53;100409.91;;;9.97;100.00
49216;BME280;45943;53.148;8.204;2024-03-25T00:57:19;100409.91;;;9.97;100.00
49216;BME280;45943;53.148;8.204;2024-03-25T00:59:45;100404.81;;;9.94;100.00
49216;BME280;45943;53.148;8.204;2024-03-25T01:02:11;100413.84;;;9.93;100.00
49216;BME280;45943;53.148;8.204;2024-03-25T01:04:37;100415.78;;;9.91;100.00
49216;BME280;45943;53.148;8.204;2024-03-25T01:07:03;100410.41;;;9.91;100.00
49216;BME280;45943;53.148;8.204;2024-03-25T01:09:29;100410.63;;;9.99;100.00
49216;BME280;45943;53.148;8.204;2024-03-25T01:11:55;100405.88;;;10.03;100.00
49216;BME280;45943;53.148;8.204;2024-03-25T01:14:21;100403.63;;;10.08;100.00
49216;BME280;45943;53.148;8.204;2024-03-25T01:16:47;100401.09;;;10.06;100.00
49216;BME280;45943;53.148;8.204;2024-03-25T01:19:13;100397.44;;;10.07;100.00
49216;BME280;45943;53.148;8.204;2024-03-25T01:21:39;100402.78;;;10.07;100.00
49216;BME280;45943;53.148;8.204;2024-03-25T01:24:05;100409.25;;;10.05;100.00
49216;BME280;45943;53.148;8.204;2024-03-25T01:26:31;100407.44;;;10.05;100.00
49216;BME280;45943;53.148;8.204;2024-03-25T01:28:57;100406.16;;;10.10;100.00
49216;BME280;45943;53.148;8.204;2024-03-25T01:31:23;100411.25;;;10.13;100.00
49216;BME280;45943;53.148;8.204;2024-03-25T01:33:49;100411.16;;;10.14;100.00
49216;BME280;45943;53.148;8.204;2024-03-25T01:36:15;100409.19;;;10.16;100.00
49216;BME280;45943;53.148;8.204;2024-03-25T01:38:43;100407.16;;;10.09;100.00
49216;BME280;45943;53.148;8.204;2024-03-25T01:41:10;100415.59;;;10.04;100.00
49216;BME280;45943;53.148;8.204;2024-03-25T01:43:38;100411.81;;;10.06;100.00
49216;BME280;45943;53.148;8.204;2024-03-25T01:46:04;100419.97;;;10.05;100.00
49216;BME280;45943;53.148;8.204;2024-03-25T01:48:31;100420.19;;;10.13;100.00
49216;BME280;45943;53.148;8.204;2024-03-25T01:50:57;100414.94;;;10.12;100.00
49216;BME280;45943;53.148;8.204;2024-03-25T01:53:25;100419.91;;;10.16;100.00
49216;BME280;45943;53.148;8.204;2024-03-25T01:55:54;100416.13;;;10.19;100.00
49216;BME280;45943;53.148;8.204;2024-03-25T01:58:22;100418.78;;;10.19;100.00
49216;BME280;45943;53.148;8.204;2024-03-25T02:00:52;100420.47;;;10.20;100.00
49216;BME280;45943;53.148;8.204;2024-03-25T02:03:20;100422.19;;;10.21;100.00
49216;BME280;45943;53.148;8.204;2024-03-25T02:05:46;100427.34;;;10.24;100.00
49216;BME280;45943;53.148;8.204;2024-03-25T02:08:16;100421.97;;;10.13;100.00
49216;BME280;45943;53.148;8.204;2024-03-25T02:10:43;100432.59;;;10.14;100.00
49216;BME280;45943;53.148;8.204;2024-03-25T02:13:09;100435.38;;;10.13;100.00
49216;BME280;45943;53.148;8.204;2024-03-25T02:15:35;100437.97;;;10.14;100.00
49216;BME280;45943;53.148;8.204;2024-03-25T02:18:01;100432.69;;;10.13;100.00
49216;BME280;45943;53.148;8.204;2024-03-25T02:20:27;100442.56;;;10.12;100.00
49216;BME280;45943;53.148;8.204;2024-03-25T02:22:53;100435.53;;;10.11;100.00
49216;BME280;45943;53.148;8.204;2024-03-25T02:25:20;100443.97;;;10.06;100.00
49216;BME280;45943;53.148;8.204;2024-03-25T02:27:47;100434.94;;;10.07;100.00
49216;BME280;45943;53.148;8.204;2024-03-25T02:30:13;100440.56;;;10.04;100.00
49216;BME280;45943;53.148;8.204;2024-03-25T02:32:39;100434.16;;;9.96;100.00
49216;BME280;45943;53.148;8.204;2024-03-25T02:35:10;100439.75;;;9.93;100.00
49216;BME280;45943;53.148;8.204;2024-03-25T02:37:40;100444.25;;;9.92;100.00
49216;BME280;45943;53.148;8.204;2024-03-25T02:40:07;100447.06;;;9.91;100.00
49216;BME280;45943;53.148;8.204;2024-03-25T02:42:35;100441.72;;;9.91;100.00
49216;BME280;45943;53.148;8.204;2024-03-25T02:45:02;100445.84;;;9.95;100.00
49216;BME280;45943;53.148;8.204;2024-03-25T02:47:28;100453.03;;;9.94;100.00
49216;BME280;45943;53.148;8.204;2024-03-25T02:49:54;100453.16;;;9.93;100.00
49216;BME280;45943;53.148;8.204;2024-03-25T02:52:20;100456.44;;;9.96;100.00
49216;BME280;45943;53.148;8.204;2024-03-25T02:54:46;100456.16;;;9.99;100.00
49216;BME280;45943;53.148;8.204;2024-03-25T02:57:12;100468.72;;;9.99;100.00
49216;BME280;45943;53.148;8.204;2024-03-25T02:59:38;100468.38;;;9.92;100.00
49216;BME280;45943;53.148;8.204;2024-03-25T03:02:04;100464.97;;;9.90;100.00
49216;BME280;45943;53.148;8.204;2024-03-25T03:04:30;100470.09;;;9.93;100.00
49216;BME280;45943;53.148;8.204;2024-03-25T03:06:56;100472.38;;;9.98;100.00
49216;BME280;45943;53.148;8.204;2024-03-25T03:09:23;100471.53;;;9.97;100.00
49216;BME280;45943;53.148;8.204;2024-03-25T03:11:49;100486.19;;;9.93;100.00
49216;BME280;45943;53.148;8.204;2024-03-25T03:14:15;100482.38;;;9.96;100.00
49216;BME280;45943;53.148;8.204;2024-03-25T03:16:41;100491.84;;;10.00;100.00
49216;BME280;45943;53.148;8.204;2024-03-25T03:19:07;100487.09;;;10.03;100.00
49216;BME280;45943;53.148;8.204;2024-03-25T03:21:33;100487.81;;;10.05;100.00
49216;BME280;45943;53.148;8.204;2024-03-25T03:23:59;100484.88;;;10.09;100.00
49216;BME280;45943;53.148;8.204;2024-03-25T03:26:25;100484.16;;;10.06;100.00
49216;BME280;45943;53.148;8.204;2024-03-25T03:28:53;100484.44;;;10.03;100.00
49216;BME280;45943;53.148;8.204;2024-03-25T03:31:20;100475.91;;;9.98;100.00
49216;BME280;45943;53.148;8.204;2024-03-25T03:33:49;100481.06;;;9.90;100.00
49216;BME280;45943;53.148;8.204;2024-03-25T03:36:18;100495.06;;;9.94;100.00
49216;BME280;45943;53.148;8.204;2024-03-25T03:38:45;100494.22;;;9.93;100.00
49216;BME280;45943;53.148;8.204;2024-03-25T03:41:11;100495.06;;;9.94;100.00
49216;BME280;45943;53.148;8.204;2024-03-25T03:43:37;100499.19;;;9.98;100.00
49216;BME280;45943;53.148;8.204;2024-03-25T03:46:03;100498.53;;;10.05;100.00
49216;BME280;45943;53.148;8.204;2024-03-25T03:48:30;100489.78;;;10.03;100.00
49216;BME280;45943;53.148;8.204;2024-03-25T03:50:56;100492.84;;;9.99;100.00
49216;BME280;45943;53.148;8.204;2024-03-25T03:53:22;100491.47;;;10.04;100.00
49216;BME280;45943;53.148;8.204;2024-03-25T03:55:55;100492.06;;;10.08;100.00
49216;BME280;45943;53.148;8.204;2024-03-25T03:58:22;100497.03;;;10.13;100.00
49216;BME280;45943;53.148;8.204;2024-03-25T04:00:49;100496.31;;;10.11;100.00
49216;BME280;45943;53.148;8.204;2024-03-25T04:03:15;100498.84;;;10.12;100.00
49216;BME280;45943;53.148;8.204;2024-03-25T04:05:41;100498.41;;;10.07;100.00
49216;BME280;45943;53.148;8.204;2024-03-25T04:08:08;100505.59;;;10.06;100.00
49216;BME280;45943;53.148;8.204;2024-03-25T04:10:34;100509.13;;;10.07;100.00
49216;BME280;45943;53.148;8.204;2024-03-25T04:13:01;100508.00;;;10.10;100.00
49216;BME280;45943;53.148;8.204;2024-03-25T04:15:28;100503.50;;;10.10;100.00
49216;BME280;45943;53.148;8.204;2024-03-25T04:17:54;100503.63;;;10.09;100.00
49216;BME280;45943;53.148;8.204;2024-03-25T04:20:20;100498.28;;;10.09;100.00
49216;BME280;45943;53.148;8.204;2024-03-25T04:22:46;100500.25;;;10.06;100.00
49216;BME280;45943;53.148;8.204;2024-03-25T04:25:13;100503.91;;;10.05;100.00
49216;BME280;45943;53.148;8.204;2024-03-25T04:27:42;100505.88;;;10.03;100.00
49216;BME280;45943;53.148;8.204;2024-03-25T04:30:09;100505.97;;;10.02;100.00
49216;BME280;45943;53.148;8.204;2024-03-25T04:32:37;100508.66;;;10.02;100.00
49216;BME280;45943;53.148;8.204;2024-03-25T04:35:04;100515.00;;;10.01;100.00
49216;BME280;45943;53.148;8.204;2024-03-25T04:37:32;100517.53;;;10.02;100.00
49216;BME280;45943;53.148;8.204;2024-03-25T04:39:59;100518.66;;;10.00;100.00
49216;BME280;45943;53.148;8.204;2024-03-25T04:42:25;100533.03;;;9.99;100.00
49216;BME280;45943;53.148;8.204;2024-03-25T04:44:51;100520.47;;;9.99;100.00
49216;BME280;45943;53.148;8.204;2024-03-25T04:47:17;100536.56;;;9.99;100.00
49216;BME280;45943;53.148;8.204;2024-03-25T04:49:43;100527.94;;;9.96;100.00
49216;BME280;45943;53.148;8.204;2024-03-25T04:52:10;100531.25;;;9.88;100.00
49216;BME280;45943;53.148;8.204;2024-03-25T04:54:39;100542.81;;;9.89;100.00
49216;BME280;45943;53.148;8.204;2024-03-25T04:57:05;100546.06;;;9.92;100.00
49216;BME280;45943;53.148;8.204;2024-03-25T04:59:32;100553.91;;;9.84;100.00
49216;BME280;45943;53.148;8.204;2024-03-25T05:01:59;100547.94;;;9.81;100.00
49216;BME280;45943;53.148;8.204;2024-03-25T05:04:25;100555.00;;;9.82;100.00
49216;BME280;45943;53.148;8.204;2024-03-25T05:06:51;100565.34;;;9.86;100.00
49216;BME280;45943;53.148;8.204;2024-03-25T05:09:17;100571.16;;;9.91;100.00
49216;BME280;45943;53.148;8.204;2024-03-25T05:11:43;100572.75;;;9.94;100.00
49216;BME280;45943;53.148;8.204;2024-03-25T05:14:09;100561.19;;;9.93;100.00
49216;BME280;45943;53.148;8.204;2024-03-25T05:16:35;100568.00;;;9.97;100.00
49216;BME280;45943;53.148;8.204;2024-03-25T05:19:02;100564.72;;;9.94;100.00
49216;BME280;45943;53.148;8.204;2024-03-25T05:21:32;100562.91;;;9.94;100.00
49216;BME280;45943;53.148;8.204;2024-03-25T05:23:58;100562.41;;;9.89;100.00
49216;BME280;45943;53.148;8.204;2024-03-25T05:26:24;100563.38;;;9.88;100.00
49216;BME280;45943;53.148;8.204;2024-03-25T05:28:53;100560.00;;;9.86;100.00
49216;BME280;45943;53.148;8.204;2024-03-25T05:31:22;100561.81;;;9.86;100.00
49216;BME280;45943;53.148;8.204;2024-03-25T05:33:49;100555.84;;;9.82;100.00
49216;BME280;45943;53.148;8.204;2024-03-25T05:36:16;100558.53;;;9.82;100.00
49216;BME280;45943;53.148;8.204;2024-03-25T05:38:42;100565.47;;;9.85;100.00
49216;BME280;45943;53.148;8.204;2024-03-25T05:41:09;100563.53;;;9.87;100.00
49216;BME280;45943;53.148;8.204;2024-03-25T05:43:35;100567.91;;;9.88;100.00
49216;BME280;45943;53.148;8.204;2024-03-25T05:46:02;100578.34;;;9.91;100.00
49216;BME280;45943;53.148;8.204;2024-03-25T05:48:28;100580.81;;;9.94;100.00
49216;BME280;45943;53.148;8.204;2024-03-25T05:50:59;100573.84;;;9.91;100.00
49216;BME280;45943;53.148;8.204;2024-03-25T05:53:35;100583.84;;;9.89;100.00
49216;BME280;45943;53.148;8.204;2024-03-25T05:56:03;100593.34;;;9.82;100.00
49216;BME280;45943;53.148;8.204;2024-03-25T05:58:29;100594.94;;;9.85;100.00
49216;BME280;45943;53.148;8.204;2024-03-25T06:00:55;100593.84;;;9.87;100.00
49216;BME280;45943;53.148;8.204;2024-03-25T06:03:21;100591.41;;;9.84;100.00
49216;BME280;45943;53.148;8.204;2024-03-25T06:05:48;100592.28;;;9.85;100.00
49216;BME280;45943;53.148;8.204;2024-03-25T06:08:14;100598.97;;;9.79;100.00
49216;BME280;45943;53.148;8.204;2024-03-25T06:10:52;100602.50;;;9.80;100.00
49216;BME280;45943;53.148;8.204;2024-03-25T06:13:19;100602.13;;;9.84;100.00
49216;BME280;45943;53.148;8.204;2024-03-25T06:15:46;100603.84;;;9.85;100.00
49216;BME280;45943;53.148;8.204;2024-03-25T06:18:12;100603.31;;;9.91;100.00
49216;BME280;45943;53.148;8.204;2024-03-25T06:20:39;100607.47;;;9.95;100.00
49216;BME280;45943;53.148;8.204;2024-03-25T06:23:05;100597.47;;;9.97;100.00
49216;BME280;45943;53.148;8.204;2024-03-25T06:25:30;100608.31;;;9.96;100.00
49216;BME280;45943;53.148;8.204;2024-03-25T06:27:57;100603.09;;;9.94;100.00
49216;BME280;45943;53.148;8.204;2024-03-25T06:30:23;100610.72;;;9.99;100.00
49216;BME280;45943;53.148;8.204;2024-03-25T06:33:07;100598.31;;;9.98;100.00
49216;BME280;45943;53.148;8.204;2024-03-25T06:35:52;100602.97;;;9.96;100.00
49216;BME280;45943;53.148;8.204;2024-03-25T06:38:18;100603.28;;;10.02;100.00
49216;BME280;45943;53.148;8.204;2024-03-25T06:40:47;100600.09;;;10.09;100.00
49216;BME280;45943;53.148;8.204;2024-03-25T06:43:13;100604.00;;;10.16;100.00
49216;BME280;45943;53.148;8.204;2024-03-25T06:45:39;100604.25;;;10.24;100.00
49216;BME280;45943;53.148;8.204;2024-03-25T06:48:05;100605.31;;;10.32;100.00
49216;BME280;45943;53.148;8.204;2024-03-25T06:50:32;100614.41;;;10.41;100.00
49216;BME280;45943;53.148;8.204;2024-03-25T06:52:58;100611.50;;;10.44;100.00
49216;BME280;45943;53.148;8.204;2024-03-25T06:55:24;100623.28;;;10.42;100.00
49216;BME280;45943;53.148;8.204;2024-03-25T06:57:53;100621.34;;;10.44;100.00
49216;BME280;45943;53.148;8.204;2024-03-25T07:00:19;100627.56;;;10.44;100.00
49216;BME280;45943;53.148;8.204;2024-03-25T07:02:46;100630.13;;;10.46;100.00
49216;BME280;45943;53.148;8.204;2024-03-25T07:05:12;100637.06;;;10.48;100.00
49216;BME280;45943;53.148;8.204;2024-03-25T07:07:38;100641.56;;;10.48;100.00
49216;BME280;45943;53.148;8.204;2024-03-25T07:10:04;100639.03;;;10.46;100.00
49216;BME280;45943;53.148;8.204;2024-03-25T07:12:30;100645.63;;;10.42;100.00
49216;BME280;45943;53.148;8.204;2024-03-25T07:14:56;100645.63;;;10.42;100.00
49216;BME280;45943;53.148;8.204;2024-03-25T07:17:22;100652.16;;;10.49;100.00
49216;BME280;45943;53.148;8.204;2024-03-25T07:19:48;100655.06;;;10.57;100.00
49216;BME280;45943;53.148;8.204;2024-03-25T07:22:14;100655.41;;;10.64;100.00
49216;BME280;45943;53.148;8.204;2024-03-25T07:24:40;100656.41;;;10.63;100.00
49216;BME280;45943;53.148;8.204;2024-03-25T07:27:06;100653.44;;;10.66;100.00
49216;BME280;45943;53.148;8.204;2024-03-25T07:29:33;100654.03;;;10.70;100.00
49216;BME280;45943;53.148;8.204;2024-03-25T07:31:59;100659.53;;;10.68;100.00
49216;BME280;45943;53.148;8.204;2024-03-25T07:34:25;100654.88;;;10.70;100.00
49216;BME280;45943;53.148;8.204;2024-03-25T07:36:52;100657.91;;;10.77;100.00
49216;BME280;45943;53.148;8.204;2024-03-25T07:39:18;100656.28;;;10.85;100.00
49216;BME280;45943;53.148;8.204;2024-03-25T07:41:44;100644.44;;;10.88;100.00
49216;BME280;45943;53.148;8.204;2024-03-25T07:44:10;100648.44;;;10.94;100.00
49216;BME280;45943;53.148;8.204;2024-03-25T07:46:37;100648.03;;;10.98;100.00
49216;BME280;45943;53.148;8.204;2024-03-25T07:49:03;100652.28;;;11.01;100.00
49216;BME280;45943;53.148;8.204;2024-03-25T07:51:29;100647.91;;;11.00;100.00
49216;BME280;45943;53.148;8.204;2024-03-25T07:53:55;100650.97;;;10.95;100.00
49216;BME280;45943;53.148;8.204;2024-03-25T07:56:21;100655.63;;;10.93;100.00
49216;BME280;45943;53.148;8.204;2024-03-25T07:58:47;100654.19;;;10.89;100.00
49216;BME280;45943;53.148;8.204;2024-03-25T08:01:13;100662.75;;;10.83;100.00
49216;BME280;45943;53.148;8.204;2024-03-25T08:03:39;100661.00;;;10.72;100.00
49216;BME280;45943;53.148;8.204;2024-03-25T08:06:05;100660.78;;;10.85;100.00
49216;BME280;45943;53.148;8.204;2024-03-25T08:08:32;100664.47;;;10.84;100.00
49216;BME280;45943;53.148;8.204;2024-03-25T08:10:58;100656.84;;;10.89;100.00
49216;BME280;45943;53.148;8.204;2024-03-25T08:13:24;100658.53;;;11.01;100.00
49216;BME280;45943;53.148;8.204;2024-03-25T08:15:52;100658.97;;;11.06;100.00
49216;BME280;45943;53.148;8.204;2024-03-25T08:18:18;100653.03;;;11.03;100.00
49216;BME280;45943;53.148;8.204;2024-03-25T08:20:44;100667.53;;;11.00;100.00
49216;BME280;45943;53.148;8.204;2024-03-25T08:23:10;100659.09;;;11.05;100.00
49216;BME280;45943;53.148;8.204;2024-03-25T08:25:36;100671.03;;;11.12;100.00
49216;BME280;45943;53.148;8.204;2024-03-25T08:28:02;100668.44;;;11.10;100.00
49216;BME280;45943;53.148;8.204;2024-03-25T08:30:28;100665.09;;;11.18;100.00
49216;BME280;45943;53.148;8.204;2024-03-25T08:32:54;100660.22;;;11.23;100.00
49216;BME280;45943;53.148;8.204;2024-03-25T08:35:20;100667.78;;;11.39;99.10
49216;BME280;45943;53.148;8.204;2024-03-25T08:37:46;100669.81;;;11.46;95.06
49216;BME280;45943;53.148;8.204;2024-03-25T08:40:12;100676.22;;;11.55;92.75
49216;BME280;45943;53.148;8.204;2024-03-25T08:42:38;100675.38;;;11.55;90.84
49216;BME280;45943;53.148;8.204;2024-03-25T08:45:04;100670.19;;;11.63;93.03
49216;BME280;45943;53.148;8.204;2024-03-25T08:47:31;100664.06;;;11.82;91.66
49216;BME280;45943;53.148;8.204;2024-03-25T08:49:57;100678.34;;;11.82;86.31
49216;BME280;45943;53.148;8.204;2024-03-25T08:52:23;100677.56;;;12.01;86.63
49216;BME280;45943;53.148;8.204;2024-03-25T08:54:49;100674.16;;;11.99;80.72
49216;BME280;45943;53.148;8.204;2024-03-25T08:57:15;100671.00;;;11.84;80.56
49216;BME280;45943;53.148;8.204;2024-03-25T08:59:41;100670.44;;;11.81;81.95
49216;BME280;45943;53.148;8.204;2024-03-25T09:02:07;100676.84;;;11.68;83.82
49216;BME280;45943;53.148;8.204;2024-03-25T09:04:33;100683.25;;;11.77;86.77
49216;BME280;45943;53.148;8.204;2024-03-25T09:06:59;100680.09;;;11.93;86.40
49216;BME280;45943;53.148;8.204;2024-03-25T09:09:25;100677.88;;;12.17;83.92
49216;BME280;45943;53.148;8.204;2024-03-25T09:12:10;100678.50;;;12.30;80.75
49216;BME280;45943;53.148;8.204;2024-03-25T09:14:36;100678.22;;;12.33;78.35
49216;BME280;45943;53.148;8.204;2024-03-25T09:17:04;100671.53;;;12.28;77.52
49216;BME280;45943;53.148;8.204;2024-03-25T09:19:30;100675.81;;;12.30;85.03
49216;BME280;45943;53.148;8.204;2024-03-25T09:21:56;100680.47;;;12.48;86.45
49216;BME280;45943;53.148;8.204;2024-03-25T09:24:22;100681.78;;;12.53;81.32
49216;BME280;45943;53.148;8.204;2024-03-25T09:26:51;100680.91;;;12.43;76.24
49216;BME280;45943;53.148;8.204;2024-03-25T09:29:17;100679.63;;;12.47;76.67
49216;BME280;45943;53.148;8.204;2024-03-25T09:31:43;100678.78;;;12.56;76.03
49216;BME280;45943;53.148;8.204;2024-03-25T09:34:09;100677.78;;;12.48;75.36
49216;BME280;45943;53.148;8.204;2024-03-25T09:36:35;100676.53;;;12.42;75.51
49216;BME280;45943;53.148;8.204;2024-03-25T09:39:01;100680.06;;;12.43;75.22
49216;BME280;45943;53.148;8.204;2024-03-25T09:41:28;100676.22;;;12.35;74.89
49216;BME280;45943;53.148;8.204;2024-03-25T09:44:00;100675.38;;;12.35;72.96
49216;BME280;45943;53.148;8.204;2024-03-25T09:46:26;100675.53;;;12.33;73.48
49216;BME280;45943;53.148;8.204;2024-03-25T09:48:52;100686.44;;;12.42;74.12
49216;BME280;45943;53.148;8.204;2024-03-25T09:51:20;100678.66;;;12.48;72.72
49216;BME280;45943;53.148;8.204;2024-03-25T09:53:46;100683.59;;;12.43;69.71
49216;BME280;45943;53.148;8.204;2024-03-25T09:56:12;100686.47;;;12.61;68.09
49216;BME280;45943;53.148;8.204;2024-03-25T09:58:39;100692.56;;;12.73;67.92
49216;BME280;45943;53.148;8.204;2024-03-25T10:01:07;100690.84;;;12.62;65.34
49216;BME280;45943;53.148;8.204;2024-03-25T10:03:33;100682.34;;;12.67;65.54
49216;BME280;45943;53.148;8.204;2024-03-25T10:05:59;100690.84;;;12.62;64.39
49216;BME280;45943;53.148;8.204;2024-03-25T10:08:25;100687.72;;;12.67;63.95
49216;BME280;45943;53.148;8.204;2024-03-25T10:10:52;100692.28;;;12.76;64.41
49216;BME280;45943;53.148;8.204;2024-03-25T10:13:18;100682.09;;;12.79;63.99
49216;BME280;45943;53.148;8.204;2024-03-25T10:15:47;100684.63;;;12.90;65.68
49216;BME280;45943;53.148;8.204;2024-03-25T10:18:13;100695.25;;;13.02;65.15
49216;BME280;45943;53.148;8.204;2024-03-25T10:20:47;100684.34;;;13.03;63.88
49216;BME280;45943;53.148;8.204;2024-03-25T10:23:22;100696.25;;;12.91;62.32
49216;BME280;45943;53.148;8.204;2024-03-25T10:25:51;100689.31;;;13.08;62.52
49216;BME280;45943;53.148;8.204;2024-03-25T10:28:19;100681.94;;;13.29;62.98
49216;BME280;45943;53.148;8.204;2024-03-25T10:30:45;100682.97;;;13.56;63.50
49216;BME280;45943;53.148;8.204;2024-03-25T10:33:11;100693.47;;;13.59;62.68
49216;BME280;45943;53.148;8.204;2024-03-25T10:35:37;100687.50;;;13.55;61.75
49216;BME280;45943;53.148;8.204;2024-03-25T10:38:07;100687.81;;;13.52;61.26
49216;BME280;45943;53.148;8.204;2024-03-25T10:40:36;100685.69;;;13.46;61.65
49216;BME280;45943;53.148;8.204;2024-03-25T10:43:04;100693.22;;;13.42;62.10
49216;BME280;45943;53.148;8.204;2024-03-25T10:45:33;100691.84;;;13.38;61.38
49216;BME280;45943;53.148;8.204;2024-03-25T10:48:03;100693.41;;;13.31;61.70
49216;BME280;45943;53.148;8.204;2024-03-25T10:50:33;100690.38;;;13.44;62.98
49216;BME280;45943;53.148;8.204;2024-03-25T10:53:01;100691.09;;;13.36;62.67
49216;BME280;45943;53.148;8.204;2024-03-25T10:55:30;100686.03;;;13.33;63.30
49216;BME280;45943;53.148;8.204;2024-03-25T10:57:58;100685.31;;;13.31;62.15
49216;BME280;45943;53.148;8.204;2024-03-25T11:00:26;100690.00;;;13.29;61.99
49216;BME280;45943;53.148;8.204;2024-03-25T11:02:53;100685.63;;;13.28;60.97
49216;BME280;45943;53.148;8.204;2024-03-25T11:05:20;100686.66;;;13.55;60.78
49216;BME280;45943;53.148;8.204;2024-03-25T11:07:46;100678.00;;;13.98;61.09
49216;BME280;45943;53.148;8.204;2024-03-25T11:10:12;100675.25;;;14.07;60.63
49216;BME280;45943;53.148;8.204;2024-03-25T11:12:39;100673.88;;;13.94;59.95
49216;BME280;45943;53.148;8.204;2024-03-25T11:15:07;100675.94;;;13.82;59.89
49216;BME280;45943;53.148;8.204;2024-03-25T11:17:35;100675.28;;;13.70;59.67
49216;BME280;45943;53.148;8.204;2024-03-25T11:20:15;100665.50;;;13.69;58.81
49216;BME280;45943;53.148;8.204;2024-03-25T11:22:51;100666.66;;;13.67;60.39
49216;BME280;45943;53.148;8.204;2024-03-25T11:28:10;100674.94;;;14.11;60.78
49216;BME280;45943;53.148;8.204;2024-03-25T11:30:36;100666.81;;;14.20;59.80
49216;BME280;45943;53.148;8.204;2024-03-25T11:33:03;100662.31;;;14.11;58.28
49216;BME280;45943;53.148;8.204;2024-03-25T11:35:30;100663.63;;;14.07;58.84
49216;BME280;45943;53.148;8.204;2024-03-25T11:38:03;100654.75;;;14.15;59.05
49216;BME280;45943;53.148;8.204;2024-03-25T11:40:29;100651.59;;;14.64;59.10
49216;BME280;45943;53.148;8.204;2024-03-25T11:42:55;100651.44;;;15.28;58.63
49216;BME280;45943;53.148;8.204;2024-03-25T11:45:21;100644.47;;;15.51;57.75
49216;BME280;45943;53.148;8.204;2024-03-25T11:47:49;100644.13;;;15.46;58.55
49216;BME280;45943;53.148;8.204;2024-03-25T11:50:16;100635.88;;;15.47;57.78
49216;BME280;45943;53.148;8.204;2024-03-25T11:52:43;100636.31;;;15.35;58.08
49216;BME280;45943;53.148;8.204;2024-03-25T11:55:09;100634.94;;;15.13;59.74
49216;BME280;45943;53.148;8.204;2024-03-25T11:57:37;100629.91;;;14.92;59.70
49216;BME280;45943;53.148;8.204;2024-03-25T12:00:04;100640.03;;;14.72;58.96
49216;BME280;45943;53.148;8.204;2024-03-25T12:02:31;100628.41;;;14.44;57.67
49216;BME280;45943;53.148;8.204;2024-03-25T12:04:58;100632.28;;;14.42;59.54
49216;BME280;45943;53.148;8.204;2024-03-25T12:07:24;100633.81;;;14.44;60.00
49216;BME280;45943;53.148;8.204;2024-03-25T12:09:50;100631.44;;;14.41;59.22
49216;BME280;45943;53.148;8.204;2024-03-25T12:12:34;100623.44;;;14.85;57.78
49216;BME280;45943;53.148;8.204;2024-03-25T12:15:00;100620.22;;;15.33;57.52
49216;BME280;45943;53.148;8.204;2024-03-25T12:17:28;100618.59;;;15.66;54.61
49216;BME280;45943;53.148;8.204;2024-03-25T12:19:59;100605.31;;;15.55;55.14
49216;BME280;45943;53.148;8.204;2024-03-25T12:22:32;100606.97;;;15.22;55.42
49216;BME280;45943;53.148;8.204;2024-03-25T12:25:05;100600.56;;;14.97;54.84
49216;BME280;45943;53.148;8.204;2024-03-25T12:27:33;100604.28;;;15.22;56.79
49216;BME280;45943;53.148;8.204;2024-03-25T12:32:38;100594.03;;;14.82;54.63
49216;BME280;45943;53.148;8.204;2024-03-25T12:35:10;100591.13;;;14.75;55.79
49216;BME280;45943;53.148;8.204;2024-03-25T12:37:40;100587.59;;;14.57;55.46
49216;BME280;45943;53.148;8.204;2024-03-25T12:40:07;100592.28;;;14.37;56.09
49216;BME280;45943;53.148;8.204;2024-03-25T12:42:36;100592.63;;;14.24;56.83
49216;BME280;45943;53.148;8.204;2024-03-25T12:45:04;100593.81;;;14.22;58.95
49216;BME280;45943;53.148;8.204;2024-03-25T12:47:32;100594.97;;;14.19;58.98
49216;BME280;45943;53.148;8.204;2024-03-25T12:49:58;100590.84;;;14.15;59.83